Time;durP1;ratioP1;P1;durP2;ratioP2;P2;SDS_P1;SDS_P2;PMS_P1;PMS_P2;Temp;Humidity;BMP_temperature;BMP_pressure;BME280_temperature;BME280_humidity;BME280_pressure;Samples;Min_cycle;Max_cycle;Signal;HPM_P1;HPM_P2
2023/02/07 00:02:19;;;;;;;18.98;9.80;;;;;;;;;;4960211;28;20030;-62
2023/02/07 00:04:45;;;;;;;16.55;9.15;;;;;;;;;;4963133;28;20180;-61
2023/02/07 00:07:10;;;;;;;15.25;9.18;;;;;;;;;;4959515;28;20130;-61
2023/02/07 00:09:36;;;;;;;17.08;10.00;;;;;;;;;;4954728;28;20039;-61
2023/02/07 00:12:02;;;;;;;20.73;10.50;;;;;;;;;;4964138;28;20058;-61
2023/02/07 00:14:27;;;;;;;20.73;11.32;;;;;;;;;;4956694;28;20118;-61
2023/02/07 00:16:52;;;;;;;20.33;10.32;;;;;;;;;;4964320;28;20097;-61
2023/02/07 00:19:18;;;;;;;19.60;10.50;;;;;;;;;;4956960;28;20019;-62
2023/02/07 00:21:43;;;;;;;19.30;11.80;;;;;;;;;;4955543;28;20034;-62
2023/02/07 00:24:08;;;;;;;23.60;11.43;;;;;;;;;;4964202;28;20086;-61
2023/02/07 00:26:34;;;;;;;23.77;11.95;;;;;;;;;;4959741;28;20113;-61
2023/02/07 00:28:59;;;;;;;24.70;11.23;;;;;;;;;;4961264;28;20125;-62
2023/02/07 00:31:26;;;;;;;28.33;12.85;;;;;;;;;;4956512;28;20049;-61
2023/02/07 00:33:53;;;;;;;27.90;11.95;;;;;;;;;;4957072;28;20027;-61
2023/02/07 00:36:21;;;;;;;25.95;13.25;;;;;;;;;;4963564;28;20042;-62
2023/02/07 00:38:47;;;;;;;23.10;11.98;;;;;;;;;;4949111;28;21608;-61
2023/02/07 00:41:14;;;;;;;22.33;12.55;;;;;;;;;;4962368;28;20469;-62
2023/02/07 00:43:39;;;;;;;25.65;13.02;;;;;;;;;;4950645;28;20251;-62
2023/02/07 00:46:05;;;;;;;26.92;12.18;;;;;;;;;;4957589;28;20604;-61
2023/02/07 00:48:30;;;;;;;28.33;13.48;;;;;;;;;;4962041;28;20448;-61
2023/02/07 00:50:57;;;;;;;24.08;13.30;;;;;;;;;;4955542;28;20031;-60
2023/02/07 00:53:22;;;;;;;24.75;13.02;;;;;;;;;;4962587;28;20030;-62
2023/02/07 00:55:48;;;;;;;28.42;13.77;;;;;;;;;;4953975;28;20486;-61
2023/02/07 00:58:13;;;;;;;25.77;13.63;;;;;;;;;;4952976;28;20031;-61
2023/02/07 01:00:38;;;;;;;23.90;13.15;;;;;;;;;;4962860;28;20037;-61
2023/02/07 01:03:04;;;;;;;24.10;13.20;;;;;;;;;;4954960;28;20031;-61
2023/02/07 01:05:29;;;;;;;24.95;12.77;;;;;;;;;;4961430;28;20034;-61
2023/02/07 01:07:55;;;;;;;27.33;13.35;;;;;;;;;;4955992;28;20022;-61
2023/02/07 01:10:21;;;;;;;27.45;13.35;;;;;;;;;;4957174;28;20034;-61
2023/02/07 01:12:46;;;;;;;29.60;14.48;;;;;;;;;;4961633;28;20038;-60
2023/02/07 01:15:12;;;;;;;25.77;12.30;;;;;;;;;;4955354;28;20033;-60
2023/02/07 01:17:38;;;;;;;22.67;13.15;;;;;;;;;;4946086;28;20802;-60
2023/02/07 01:20:04;;;;;;;29.13;13.73;;;;;;;;;;4957710;28;20038;-61
2023/02/07 01:22:29;;;;;;;23.85;13.82;;;;;;;;;;4953080;28;20165;-61
2023/02/07 01:24:55;;;;;;;21.85;12.85;;;;;;;;;;4962870;28;20462;-61
2023/02/07 01:27:21;;;;;;;28.73;13.00;;;;;;;;;;4955976;28;20598;-61
2023/02/07 01:29:46;;;;;;;27.73;13.18;;;;;;;;;;4960445;28;20126;-62
2023/02/07 01:32:12;;;;;;;31.80;15.65;;;;;;;;;;4953058;28;20578;-61
2023/02/07 01:34:37;;;;;;;26.15;15.27;;;;;;;;;;4971082;28;20035;-61
2023/02/07 01:37:02;;;;;;;33.05;16.33;;;;;;;;;;4961863;28;20418;-61
2023/02/07 01:39:28;;;;;;;29.83;13.57;;;;;;;;;;4955030;28;20035;-61
2023/02/07 01:41:53;;;;;;;32.97;15.10;;;;;;;;;;4959923;28;20113;-61
2023/02/07 01:44:22;;;;;;;28.80;14.15;;;;;;;;;;4956198;28;20031;-61
2023/02/07 01:46:48;;;;;;;26.73;13.10;;;;;;;;;;4973298;28;20033;-62
2023/02/07 01:49:15;;;;;;;;;;;;;;;;;;4962308;28;20031;-62
2023/02/07 01:51:42;;;;;;;27.95;14.18;;;;;;;;;;4952563;28;20376;-60
2023/02/07 01:54:10;;;;;;;26.75;12.95;;;;;;;;;;4963050;28;20035;-60
2023/02/07 01:56:37;;;;;;;27.52;14.10;;;;;;;;;;4955376;28;20046;-60
2023/02/07 01:59:03;;;;;;;30.50;14.30;;;;;;;;;;4955236;28;20034;-62
2023/02/07 02:01:28;;;;;;;32.33;14.97;;;;;;;;;;4959927;28;20289;-62
2023/02/07 02:03:55;;;;;;;30.70;15.20;;;;;;;;;;4953542;28;20026;-61
2023/02/07 02:06:21;;;;;;;33.22;16.73;;;;;;;;;;4960614;28;20050;-62
2023/02/07 02:08:46;;;;;;;35.03;15.33;;;;;;;;;;4951517;28;20027;-63
2023/02/07 02:11:24;;;;;;;26.92;14.80;;;;;;;;;;4952522;28;20644;-62
2023/02/07 02:13:52;;;;;;;32.13;14.52;;;;;;;;;;4962334;28;20034;-61
2023/02/07 02:16:23;;;;;;;30.30;16.58;;;;;;;;;;4955918;28;20394;-61
2023/02/07 02:18:48;;;;;;;29.20;15.32;;;;;;;;;;4937762;28;20062;-61
2023/02/07 02:21:35;;;;;;;30.23;16.40;;;;;;;;;;4959099;28;20117;-61
2023/02/07 02:24:14;;;;;;;29.67;14.75;;;;;;;;;;4952274;28;20037;-61
2023/02/07 02:26:58;;;;;;;34.20;15.27;;;;;;;;;;4937262;28;20141;-61
2023/02/07 02:29:27;;;;;;;34.10;17.27;;;;;;;;;;4955564;28;20062;-61
2023/02/07 02:32:11;;;;;;;34.25;15.52;;;;;;;;;;4954524;28;20456;-60
2023/02/07 02:34:54;;;;;;;38.67;19.50;;;;;;;;;;4961125;28;20050;-61
2023/02/07 02:37:39;;;;;;;30.00;15.00;;;;;;;;;;4974234;28;20117;-61
2023/02/07 02:40:04;;;;;;;31.52;17.17;;;;;;;;;;4955072;28;20034;-61
2023/02/07 02:42:36;;;;;;;35.67;16.15;;;;;;;;;;4961021;28;20104;-61
2023/02/07 02:45:07;;;;;;;37.72;16.52;;;;;;;;;;4952447;28;20027;-61
2023/02/07 02:47:33;;;;;;;27.60;15.02;;;;;;;;;;4970847;28;20283;-61
2023/02/07 02:50:00;;;;;;;36.90;17.52;;;;;;;;;;4960574;28;20475;-61
2023/02/07 02:52:27;;;;;;;32.25;17.48;;;;;;;;;;4956374;28;20074;-61
2023/02/07 02:54:52;;;;;;;34.33;16.95;;;;;;;;;;4971720;28;20061;-61
2023/02/07 02:57:48;;;;;;;36.08;16.95;;;;;;;;;;4969549;28;20043;-60
2023/02/07 03:00:26;;;;;;;31.90;16.52;;;;;;;;;;4960366;28;20186;-60
2023/02/07 03:03:14;;;;;;;33.17;17.00;;;;;;;;;;4956941;28;20133;-61
2023/02/07 03:05:39;;;;;;;35.33;17.25;;;;;;;;;;4959201;28;20035;-60
2023/02/07 03:08:12;;;;;;;36.10;18.92;;;;;;;;;;4955591;28;20085;-60
2023/02/07 03:10:57;;;;;;;51.80;18.27;;;;;;;;;;4942583;28;20037;-61
2023/02/07 03:13:22;;;;;;;31.60;16.63;;;;;;;;;;4949768;28;20031;-61
2023/02/07 03:15:55;;;;;;;31.95;16.13;;;;;;;;;;4956201;28;20262;-60
2023/02/07 03:18:26;;;;;;;35.13;15.85;;;;;;;;;;4961326;28;20809;-60
2023/02/07 03:20:55;;;;;;;33.08;16.67;;;;;;;;;;4947017;28;20125;-60
2023/02/07 03:23:20;;;;;;;35.03;15.55;;;;;;;;;;4954447;28;20610;-61
2023/02/07 03:25:46;;;;;;;34.25;15.93;;;;;;;;;;4958704;28;20552;-61
2023/02/07 03:28:13;;;;;;;33.72;16.27;;;;;;;;;;4953875;28;20035;-60
2023/02/07 03:30:40;;;;;;;37.17;19.90;;;;;;;;;;4959032;28;20031;-60
2023/02/07 03:33:10;;;;;;;36.38;17.42;;;;;;;;;;4953261;28;20034;-61
2023/02/07 03:35:38;;;;;;;33.58;16.08;;;;;;;;;;4951199;28;20742;-61
2023/02/07 03:38:04;;;;;;;35.05;16.17;;;;;;;;;;4958672;28;20557;-60
2023/02/07 03:40:32;;;;;;;33.45;17.08;;;;;;;;;;4958391;28;20038;-61
2023/02/07 03:43:06;;;;;;;32.72;17.98;;;;;;;;;;4961526;28;20050;-61
2023/02/07 03:45:31;;;;;;;29.85;16.83;;;;;;;;;;4957587;28;20542;-60
2023/02/07 03:47:57;;;;;;;31.80;16.88;;;;;;;;;;4958792;28;20039;-61
2023/02/07 03:50:22;;;;;;;32.72;16.27;;;;;;;;;;4962084;28;20471;-61
2023/02/07 03:52:47;;;;;;;37.50;17.30;;;;;;;;;;4957274;28;20117;-61
2023/02/07 03:55:13;;;;;;;36.05;17.48;;;;;;;;;;4962041;28;20906;-61
2023/02/07 03:57:38;;;;;;;32.50;16.40;;;;;;;;;;4956410;28;20034;-61
2023/02/07 04:00:04;;;;;;;33.78;17.13;;;;;;;;;;4959142;28;20035;-61
2023/02/07 04:02:37;;;;;;;37.92;17.10;;;;;;;;;;4963379;28;20031;-61
2023/02/07 04:05:03;;;;;;;41.00;21.10;;;;;;;;;;4957382;28;20037;-60
2023/02/07 04:07:28;;;;;;;33.75;16.55;;;;;;;;;;4958029;28;20034;-62
2023/02/07 04:09:54;;;;;;;37.83;17.42;;;;;;;;;;4963307;28;20035;-60
2023/02/07 04:12:19;;;;;;;30.65;16.40;;;;;;;;;;4956282;28;20027;-60
2023/02/07 04:14:44;;;;;;;34.90;16.92;;;;;;;;;;4965035;28;20047;-60
2023/02/07 04:17:10;;;;;;;33.33;15.95;;;;;;;;;;4955797;28;20062;-61
2023/02/07 04:19:35;;;;;;;32.47;17.08;;;;;;;;;;4956344;28;20490;-65
2023/02/07 04:22:00;;;;;;;36.53;16.92;;;;;;;;;;4963034;28;20109;-61
2023/02/07 04:24:26;;;;;;;32.60;16.83;;;;;;;;;;4958535;28;20035;-62
2023/02/07 04:26:51;;;;;;;36.65;16.40;;;;;;;;;;4964732;28;20026;-60
2023/02/07 04:29:16;;;;;;;29.35;15.52;;;;;;;;;;4958262;28;20053;-61
2023/02/07 04:31:42;;;;;;;28.33;15.95;;;;;;;;;;4953557;28;20497;-61
2023/02/07 04:34:08;;;;;;;38.10;16.20;;;;;;;;;;4958713;28;20036;-60
2023/02/07 04:36:34;;;;;;;31.08;15.18;;;;;;;;;;4954375;28;20167;-60
2023/02/07 04:38:59;;;;;;;31.65;16.02;;;;;;;;;;4961687;28;20162;-60
2023/02/07 04:41:24;;;;;;;33.53;16.25;;;;;;;;;;4953650;28;20031;-60
2023/02/07 04:43:50;;;;;;;31.50;16.27;;;;;;;;;;4955661;28;20372;-60
2023/02/07 04:46:15;;;;;;;34.97;17.17;;;;;;;;;;4962476;28;20041;-60
2023/02/07 04:48:40;;;;;;;37.53;19.17;;;;;;;;;;4955557;28;20101;-60
2023/02/07 04:51:06;;;;;;;33.88;17.60;;;;;;;;;;4961112;28;20031;-60
2023/02/07 04:53:31;;;;;;;36.30;17.55;;;;;;;;;;4955018;28;20093;-61
2023/02/07 04:55:56;;;;;;;31.27;16.30;;;;;;;;;;4940317;28;20027;-61
2023/02/07 04:58:22;;;;;;;40.83;17.98;;;;;;;;;;4961950;28;20042;-61
2023/02/07 05:00:47;;;;;;;38.88;17.55;;;;;;;;;;4954283;28;20594;-61
2023/02/07 05:03:13;;;;;;;34.30;16.17;;;;;;;;;;4962531;28;20041;-61
2023/02/07 05:05:39;;;;;;;35.28;17.70;;;;;;;;;;4956006;28;20038;-61
2023/02/07 05:08:04;;;;;;;34.20;16.20;;;;;;;;;;4954806;28;20042;-61
2023/02/07 05:10:30;;;;;;;38.60;17.33;;;;;;;;;;4961422;28;20030;-61
2023/02/07 05:12:55;;;;;;;41.35;18.00;;;;;;;;;;4957270;28;20543;-61
2023/02/07 05:15:20;;;;;;;40.58;18.45;;;;;;;;;;4962262;28;20053;-61
2023/02/07 05:17:46;;;;;;;36.35;17.38;;;;;;;;;;4953990;28;20034;-61
2023/02/07 05:20:11;;;;;;;39.25;18.38;;;;;;;;;;4956097;28;20034;-61
2023/02/07 05:22:36;;;;;;;35.63;18.33;;;;;;;;;;4958590;28;20027;-61
2023/02/07 05:25:02;;;;;;;41.17;17.58;;;;;;;;;;4957087;28;20030;-61
2023/02/07 05:27:27;;;;;;;32.67;18.08;;;;;;;;;;4962047;28;20062;-61
2023/02/07 05:29:52;;;;;;;39.83;17.63;;;;;;;;;;4953040;28;20035;-61
2023/02/07 05:35:02;;;;;;;36.40;17.08;;;;;;;;;;4961050;28;20318;-61
2023/02/07 05:37:27;;;;;;;35.60;16.60;;;;;;;;;;4952515;28;20035;-61
2023/02/07 05:39:52;;;;;;;35.90;17.13;;;;;;;;;;4961069;28;20110;-61
2023/02/07 05:42:17;;;;;;;32.92;16.08;;;;;;;;;;4952697;28;20022;-61
2023/02/07 05:44:43;;;;;;;35.33;16.42;;;;;;;;;;4955430;28;20471;-61
2023/02/07 05:47:09;;;;;;;36.92;17.30;;;;;;;;;;4961253;28;20045;-60
2023/02/07 05:49:34;;;;;;;38.28;18.33;;;;;;;;;;4956786;28;20042;-61
2023/02/07 05:51:59;;;;;;;40.17;17.83;;;;;;;;;;4958843;28;20031;-62
2023/02/07 05:54:25;;;;;;;44.10;22.40;;;;;;;;;;4953468;28;20121;-62
2023/02/07 05:56:50;;;;;;;47.75;19.98;;;;;;;;;;4952104;28;20031;-61
2023/02/07 05:59:15;;;;;;;43.53;18.63;;;;;;;;;;4958878;28;20057;-61
2023/02/07 06:01:41;;;;;;;35.80;18.23;;;;;;;;;;4953469;28;20395;-60
2023/02/07 06:04:06;;;;;;;38.50;16.65;;;;;;;;;;4957371;28;20102;-60
2023/02/07 06:06:31;;;;;;;38.03;17.80;;;;;;;;;;4946550;28;20260;-62
2023/02/07 06:08:57;;;;;;;35.40;16.85;;;;;;;;;;4920984;28;20039;-62
2023/02/07 06:11:22;;;;;;;38.67;18.75;;;;;;;;;;4954702;28;20893;-61
2023/02/07 06:13:47;;;;;;;41.60;18.15;;;;;;;;;;4951363;28;20026;-61
2023/02/07 06:16:13;;;;;;;42.45;16.98;;;;;;;;;;4960826;28;20516;-61
2023/02/07 06:18:38;;;;;;;33.90;16.63;;;;;;;;;;4956246;28;20045;-61
2023/02/07 06:21:03;;;;;;;43.35;17.55;;;;;;;;;;4952399;28;20034;-62
2023/02/07 06:23:29;;;;;;;32.38;16.35;;;;;;;;;;4958923;28;20317;-61
2023/02/07 06:25:54;;;;;;;36.63;15.52;;;;;;;;;;4956985;28;20042;-61
2023/02/07 06:28:19;;;;;;;32.28;16.08;;;;;;;;;;4960492;28;20066;-60
2023/02/07 06:30:45;;;;;;;36.83;16.25;;;;;;;;;;4952877;28;20030;-64
2023/02/07 06:33:10;;;;;;;31.67;15.48;;;;;;;;;;4951696;28;20026;-60
2023/02/07 06:35:36;;;;;;;39.92;15.27;;;;;;;;;;4958288;28;20041;-59
2023/02/07 06:38:01;;;;;;;26.90;14.07;;;;;;;;;;4950538;28;20073;-59
2023/02/07 06:40:26;;;;;;;31.08;14.00;;;;;;;;;;4958432;28;20058;-60
2023/02/07 06:42:52;;;;;;;33.65;16.60;;;;;;;;;;4956071;28;20022;-60
2023/02/07 06:45:17;;;;;;;39.60;15.60;;;;;;;;;;4954885;28;20408;-60
2023/02/07 06:47:42;;;;;;;50.08;19.90;;;;;;;;;;4945152;28;20105;-61
2023/02/07 06:50:08;;;;;;;38.90;16.75;;;;;;;;;;4954642;28;20035;-62
2023/02/07 06:52:33;;;;;;;40.33;18.35;;;;;;;;;;4957785;28;20026;-62
2023/02/07 06:54:58;;;;;;;43.05;17.58;;;;;;;;;;4954770;28;20031;-62
2023/02/07 06:57:24;;;;;;;41.85;18.92;;;;;;;;;;4953309;28;20038;-61
2023/02/07 06:59:49;;;;;;;46.25;18.13;;;;;;;;;;4962711;28;20110;-61
2023/02/07 07:02:16;;;;;;;40.83;17.27;;;;;;;;;;4956119;28;20062;-61
2023/02/07 07:04:41;;;;;;;38.95;18.30;;;;;;;;;;4962372;28;20054;-60
2023/02/07 07:07:06;;;;;;;33.50;16.70;;;;;;;;;;4954988;28;20129;-61
2023/02/07 07:09:32;;;;;;;34.80;17.30;;;;;;;;;;4955000;28;20051;-62
2023/02/07 07:11:57;;;;;;;34.13;16.92;;;;;;;;;;4961796;28;20181;-61
2023/02/07 07:14:22;;;;;;;38.65;18.55;;;;;;;;;;4958580;28;20390;-61
2023/02/07 07:16:47;;;;;;;37.53;16.77;;;;;;;;;;4963493;28;20026;-61
2023/02/07 07:19:13;;;;;;;38.25;18.27;;;;;;;;;;4961198;28;20031;-61
2023/02/07 07:21:38;;;;;;;42.55;17.98;;;;;;;;;;4958947;28;20038;-60
2023/02/07 07:24:04;;;;;;;35.45;17.02;;;;;;;;;;4967235;28;20031;-61
2023/02/07 07:26:29;;;;;;;37.05;17.85;;;;;;;;;;4958946;28;20048;-61
2023/02/07 07:28:57;;;;;;;39.08;18.98;;;;;;;;;;4947206;28;20046;-61
2023/02/07 07:31:22;;;;;;;42.50;18.40;;;;;;;;;;4950145;28;20027;-60
2023/02/07 07:33:48;;;;;;;35.22;17.08;;;;;;;;;;4946263;28;20054;-60
2023/02/07 07:36:13;;;;;;;31.70;16.90;;;;;;;;;;4956519;28;20038;-60
2023/02/07 07:38:38;;;;;;;38.72;15.82;;;;;;;;;;4954822;28;20115;-61
2023/02/07 07:41:04;;;;;;;37.65;16.75;;;;;;;;;;4950690;28;20038;-60
2023/02/07 07:43:29;;;;;;;35.55;15.88;;;;;;;;;;4948662;28;20104;-60
2023/02/07 07:45:55;;;;;;;39.17;17.45;;;;;;;;;;4947647;28;20031;-60
2023/02/07 07:48:21;;;;;;;30.30;14.98;;;;;;;;;;4953084;28;20038;-60
2023/02/07 07:50:47;;;;;;;37.55;17.20;;;;;;;;;;4943547;28;20354;-60
2023/02/07 07:53:12;;;;;;;36.72;16.55;;;;;;;;;;4955257;28;20349;-60
2023/02/07 07:55:38;;;;;;;31.88;16.23;;;;;;;;;;4948477;28;20034;-60
2023/02/07 07:58:03;;;;;;;33.65;15.25;;;;;;;;;;4950924;28;20403;-60
2023/02/07 08:00:29;;;;;;;37.75;16.17;;;;;;;;;;4955956;28;20395;-60
2023/02/07 08:02:54;;;;;;;31.55;15.07;;;;;;;;;;4956305;28;20031;-60
2023/02/07 08:05:19;;;;;;;31.23;15.55;;;;;;;;;;4963451;28;20054;-60
2023/02/07 08:07:45;;;;;;;36.53;15.88;;;;;;;;;;4939930;28;20424;-60
2023/02/07 08:10:10;;;;;;;32.72;15.23;;;;;;;;;;4946737;28;20030;-60
2023/02/07 08:12:35;;;;;;;39.55;14.30;;;;;;;;;;4953756;28;20106;-60
2023/02/07 08:15:01;;;;;;;35.33;16.90;;;;;;;;;;4949410;28;20125;-59
2023/02/07 08:17:26;;;;;;;35.85;15.95;;;;;;;;;;4949194;28;20054;-60
2023/02/07 08:19:51;;;;;;;35.38;15.90;;;;;;;;;;4964576;28;20459;-61
2023/02/07 08:22:17;;;;;;;37.40;16.75;;;;;;;;;;4930574;28;20125;-60
2023/02/07 08:24:42;;;;;;;36.70;16.38;;;;;;;;;;4963072;28;20039;-60
2023/02/07 08:27:07;;;;;;;35.42;18.27;;;;;;;;;;4961453;28;20054;-60
2023/02/07 08:29:33;;;;;;;32.75;16.90;;;;;;;;;;4982027;28;20399;-60
2023/02/07 08:31:58;;;;;;;37.00;15.60;;;;;;;;;;4960121;28;20101;-60
2023/02/07 08:34:25;;;;;;;33.58;16.55;;;;;;;;;;4979546;28;20076;-59
2023/02/07 08:36:51;;;;;;;34.95;15.40;;;;;;;;;;4984314;28;20542;-59
2023/02/07 08:39:17;;;;;;;32.67;16.42;;;;;;;;;;4978250;28;20053;-59
2023/02/07 08:41:42;;;;;;;37.10;15.57;;;;;;;;;;4980960;28;20899;-60
2023/02/07 08:44:07;;;;;;;33.95;17.13;;;;;;;;;;4982752;28;20398;-60
2023/02/07 08:46:33;;;;;;;35.53;16.52;;;;;;;;;;4976249;28;20029;-60
2023/02/07 08:48:58;;;;;;;32.78;16.15;;;;;;;;;;4985829;28;20042;-60
2023/02/07 08:51:24;;;;;;;35.50;15.93;;;;;;;;;;4978738;28;20124;-60
2023/02/07 08:53:49;;;;;;;35.25;17.35;;;;;;;;;;4984388;28;20030;-60
2023/02/07 08:56:15;;;;;;;39.90;17.73;;;;;;;;;;4984506;28;20030;-60
2023/02/07 08:58:43;;;;;;;39.50;17.85;;;;;;;;;;4978766;28;20030;-59
2023/02/07 09:01:10;;;;;;;35.38;17.08;;;;;;;;;;4982490;28;20034;-59
2023/02/07 09:03:36;;;;;;;30.63;16.08;;;;;;;;;;4978040;28;20025;-59
2023/02/07 09:06:01;;;;;;;36.33;16.90;;;;;;;;;;4977148;28;20026;-59
2023/02/07 09:08:26;;;;;;;37.28;15.90;;;;;;;;;;4983363;28;20453;-60
2023/02/07 09:10:52;;;;;;;33.28;16.98;;;;;;;;;;4978379;28;20027;-60
2023/02/07 09:13:17;;;;;;;36.47;17.15;;;;;;;;;;4983494;28;20045;-61
2023/02/07 09:15:42;;;;;;;34.85;16.45;;;;;;;;;;4955856;28;20088;-59
2023/02/07 09:18:07;;;;;;;40.45;17.80;;;;;;;;;;4978396;28;20074;-60
2023/02/07 09:20:33;;;;;;;35.35;17.75;;;;;;;;;;4983158;28;20036;-60
2023/02/07 09:23:16;;;;;;;34.53;16.50;;;;;;;;;;4976278;28;20034;-59
2023/02/07 09:25:42;;;;;;;40.17;17.48;;;;;;;;;;4983524;28;20482;-61
2023/02/07 09:28:07;;;;;;;39.10;19.27;;;;;;;;;;4976566;28;20061;-61
2023/02/07 09:30:33;;;;;;;38.42;18.23;;;;;;;;;;4975241;28;20044;-60
2023/02/07 09:32:58;;;;;;;38.92;18.35;;;;;;;;;;4978967;28;20022;-61
2023/02/07 09:35:23;;;;;;;40.38;17.92;;;;;;;;;;4976571;28;20033;-61
2023/02/07 09:37:51;;;;;;;39.05;18.38;;;;;;;;;;4981990;28;20042;-61
2023/02/07 09:40:18;;;;;;;29.83;15.55;;;;;;;;;;4974681;28;20023;-60
2023/02/07 09:43:08;;;;;;;35.28;16.38;;;;;;;;;;4976751;28;20026;-61
2023/02/07 09:45:37;;;;;;;38.15;17.48;;;;;;;;;;4981779;28;20030;-61
2023/02/07 09:48:05;;;;;;;33.72;16.35;;;;;;;;;;4969880;28;20034;-61
2023/02/07 09:50:33;;;;;;;34.50;17.02;;;;;;;;;;4977433;28;20026;-61
2023/02/07 09:53:02;;;;;;;31.50;16.90;;;;;;;;;;4982903;28;20072;-61
2023/02/07 09:55:31;;;;;;;31.65;15.32;;;;;;;;;;4975697;28;20394;-61
2023/02/07 09:58:05;;;;;;;32.95;17.25;;;;;;;;;;4980407;28;20487;-61
2023/02/07 10:00:33;;;;;;;32.67;15.45;;;;;;;;;;4976042;28;20321;-61
2023/02/07 10:03:08;;;;;;;29.40;15.07;;;;;;;;;;4975694;28;20065;-61
2023/02/07 10:05:52;;;;;;;26.55;14.25;;;;;;;;;;4981416;28;20267;-60
2023/02/07 10:08:18;;;;;;;24.88;14.30;;;;;;;;;;4974200;28;20026;-60
2023/02/07 10:11:02;;;;;;;23.50;13.15;;;;;;;;;;4972695;28;21281;-61
2023/02/07 10:13:28;;;;;;;23.65;13.30;;;;;;;;;;4981125;28;20724;-60
2023/02/07 10:16:08;;;;;;;28.02;14.68;;;;;;;;;;4973588;28;20612;-60
2023/02/07 10:18:41;;;;;;;30.77;14.68;;;;;;;;;;4973519;28;20490;-61
2023/02/07 10:21:12;;;;;;;28.45;14.80;;;;;;;;;;4981392;28;20121;-60
2023/02/07 10:24:04;;;;;;;27.90;14.98;;;;;;;;;;4976813;28;20108;-60
2023/02/07 10:26:33;;;;;;;31.25;14.73;;;;;;;;;;4972635;28;20046;-60
2023/02/07 10:29:27;;;;;;;26.27;13.15;;;;;;;;;;4975048;28;20034;-60
2023/02/07 10:31:54;;;;;;;26.48;13.35;;;;;;;;;;4916313;28;20039;-60
2023/02/07 10:34:40;;;;;;;23.63;13.25;;;;;;;;;;4980194;28;20042;-59
2023/02/07 10:37:25;;;;;;;24.42;13.10;;;;;;;;;;4978348;28;20038;-60
2023/02/07 10:40:02;;;;;;;25.98;12.13;;;;;;;;;;4974799;28;20058;-59
2023/02/07 10:42:30;;;;;;;28.95;14.73;;;;;;;;;;4992083;28;20038;-60
2023/02/07 10:44:56;;;;;;;25.02;14.05;;;;;;;;;;4972846;28;20114;-61
2023/02/07 10:47:22;;;;;;;24.88;12.50;;;;;;;;;;4975266;28;20418;-61
2023/02/07 10:49:48;;;;;;;20.27;11.43;;;;;;;;;;4981838;28;20071;-61
2023/02/07 10:52:19;;;;;;;20.63;11.50;;;;;;;;;;4976816;28;20432;-60
2023/02/07 10:54:54;;;;;;;16.95;11.07;;;;;;;;;;4982289;28;20030;-60
2023/02/07 10:57:20;;;;;;;19.83;11.18;;;;;;;;;;4983330;28;20080;-58
2023/02/07 10:59:46;;;;;;;20.23;11.70;;;;;;;;;;4978678;28;20383;-59
2023/02/07 11:02:20;;;;;;;18.70;10.93;;;;;;;;;;4983875;28;20487;-59
2023/02/07 11:04:46;;;;;;;20.80;10.73;;;;;;;;;;4971256;28;20034;-59
2023/02/07 11:07:14;;;;;;;20.05;11.80;;;;;;;;;;4973308;28;20029;-61
2023/02/07 11:09:40;;;;;;;22.48;10.95;;;;;;;;;;4981409;28;20030;-59
2023/02/07 11:12:14;;;;;;;21.15;10.35;;;;;;;;;;4987842;28;20403;-59
2023/02/07 11:14:39;;;;;;;22.00;11.40;;;;;;;;;;4985110;28;20053;-60
2023/02/07 11:17:04;;;;;;;21.02;11.23;;;;;;;;;;4980524;28;20042;-59
2023/02/07 11:19:30;;;;;;;18.10;10.07;;;;;;;;;;4978161;28;20054;-60
2023/02/07 11:22:08;;;;;;;21.65;10.82;;;;;;;;;;4987327;28;20037;-62
2023/02/07 11:24:34;;;;;;;20.08;9.45;;;;;;;;;;4977877;28;20479;-61
2023/02/07 11:27:26;;;;;;;19.30;10.23;;;;;;;;;;4987508;28;20109;-59
2023/02/07 11:29:59;;;;;;;16.77;9.88;;;;;;;;;;4981693;28;20132;-60
2023/02/07 11:32:25;;;;;;;18.38;9.40;;;;;;;;;;4982016;28;20109;-60
2023/02/07 11:34:56;;;;;;;14.98;9.00;;;;;;;;;;4985614;28;20019;-60
2023/02/07 11:37:22;;;;;;;15.95;10.00;;;;;;;;;;4983422;28;20078;-60
2023/02/07 11:39:48;;;;;;;16.38;8.45;;;;;;;;;;4978937;28;20050;-61
2023/02/07 11:42:16;;;;;;;14.73;9.10;;;;;;;;;;4983349;28;20034;-61
2023/02/07 11:44:42;;;;;;;16.77;9.98;;;;;;;;;;4977995;28;20026;-60
2023/02/07 11:47:12;;;;;;;18.05;9.07;;;;;;;;;;4984009;28;20042;-61
2023/02/07 11:49:41;;;;;;;15.77;8.85;;;;;;;;;;4982382;28;20487;-61
2023/02/07 11:52:08;;;;;;;17.42;9.45;;;;;;;;;;4980090;28;20490;-61
2023/02/07 11:54:34;;;;;;;14.40;9.30;;;;;;;;;;4983400;28;20039;-60
2023/02/07 11:57:00;;;;;;;15.55;9.02;;;;;;;;;;4977467;28;20057;-59
2023/02/07 11:59:27;;;;;;;12.07;7.40;;;;;;;;;;4976984;28;20038;-60
2023/02/07 12:01:56;;;;;;;13.45;8.43;;;;;;;;;;4983824;28;20271;-60
2023/02/07 12:04:51;;;;;;;12.18;7.30;;;;;;;;;;4979955;28;20094;-60
2023/02/07 12:07:16;;;;;;;15.23;8.45;;;;;;;;;;4984133;28;20050;-60
2023/02/07 12:09:46;;;;;;;15.63;8.30;;;;;;;;;;4981169;28;20383;-60
2023/02/07 12:12:20;;;;;;;13.43;7.72;;;;;;;;;;4978212;28;20045;-59
2023/02/07 12:14:46;;;;;;;13.07;7.13;;;;;;;;;;4984991;28;20031;-59
2023/02/07 12:17:22;;;;;;;11.57;7.00;;;;;;;;;;4979270;28;20126;-60
2023/02/07 12:19:52;;;;;;;12.67;7.10;;;;;;;;;;4978612;28;20064;-61
2023/02/07 12:22:21;;;;;;;11.07;6.30;;;;;;;;;;4985704;28;20034;-61
2023/02/07 12:25:10;;;;;;;11.18;7.30;;;;;;;;;;4979090;28;20439;-60
2023/02/07 12:27:37;;;;;;;11.48;7.07;;;;;;;;;;4979055;28;20038;-60
2023/02/07 12:30:05;;;;;;;11.77;7.53;;;;;;;;;;4984461;28;20117;-58
2023/02/07 12:32:36;;;;;;;12.63;8.43;;;;;;;;;;4981009;28;20034;-61
2023/02/07 12:35:11;;;;;;;7.75;5.35;;;;;;;;;;4984252;28;20037;-58
2023/02/07 12:37:36;;;;;;;9.68;6.80;;;;;;;;;;4976812;28;20506;-60
2023/02/07 12:40:01;;;;;;;9.20;6.18;;;;;;;;;;4975850;28;20041;-62
2023/02/07 12:42:53;;;;;;;10.15;6.78;;;;;;;;;;4982844;28;20395;-59
2023/02/07 12:45:28;;;;;;;12.32;7.53;;;;;;;;;;4974524;28;20042;-60
2023/02/07 12:48:05;;;;;;;8.80;6.05;;;;;;;;;;4979777;28;20539;-60
2023/02/07 12:50:43;;;;;;;8.68;5.78;;;;;;;;;;4983789;28;20505;-60
2023/02/07 12:53:14;;;;;;;9.85;6.53;;;;;;;;;;4977745;28;20030;-59
2023/02/07 12:55:45;;;;;;;9.88;6.30;;;;;;;;;;4983103;28;20144;-60
2023/02/07 12:58:36;;;;;;;9.00;5.88;;;;;;;;;;4979946;28;20604;-59
2023/02/07 13:01:20;;;;;;;34.03;16.55;;;;;;;;;;4977171;28;20069;-59
2023/02/07 13:03:58;;;;;;;11.10;6.28;;;;;;;;;;4985279;28;20070;-59
2023/02/07 13:06:29;;;;;;;9.25;6.38;;;;;;;;;;4982356;28;20061;-60
2023/02/07 13:09:02;;;;;;;11.23;6.28;;;;;;;;;;4975428;28;20026;-59
2023/02/07 13:11:27;;;;;;;11.07;6.40;;;;;;;;;;4982280;28;20023;-58
2023/02/07 13:13:55;;;;;;;11.75;5.78;;;;;;;;;;4977572;28;20026;-60
2023/02/07 13:16:25;;;;;;;9.27;5.55;;;;;;;;;;4976354;28;20286;-59
2023/02/07 13:19:04;;;;;;;10.95;6.32;;;;;;;;;;4977407;28;20660;-60
2023/02/07 13:21:48;;;;;;;12.32;6.03;;;;;;;;;;4971733;28;20088;-60
2023/02/07 13:24:14;;;;;;;9.57;6.32;;;;;;;;;;4976787;28;20156;-60
2023/02/07 13:26:40;;;;;;;10.93;5.95;;;;;;;;;;4985678;28;20041;-60
2023/02/07 13:29:12;;;;;;;9.95;5.82;;;;;;;;;;4973982;28;20161;-59
2023/02/07 13:31:49;;;;;;;8.05;5.65;;;;;;;;;;4983656;28;20037;-59
2023/02/07 13:34:14;;;;;;;;;;;;;;;;;;4978506;28;20045;-59
2023/02/07 13:36:41;;;;;;;10.47;6.03;;;;;;;;;;4979985;28;19910;-60
2023/02/07 13:39:12;;;;;;;8.43;5.63;;;;;;;;;;4983523;28;20042;-60
2023/02/07 13:41:47;;;;;;;14.85;6.88;;;;;;;;;;4977423;28;20026;-59
2023/02/07 13:44:25;;;;;;;9.90;5.50;;;;;;;;;;4980973;28;20027;-59
2023/02/07 13:47:10;;;;;;;9.35;5.80;;;;;;;;;;4983715;28;20046;-59
2023/02/07 13:49:49;;;;;;;9.68;5.85;;;;;;;;;;4991779;28;20121;-59
2023/02/07 13:52:33;;;;;;;9.85;6.00;;;;;;;;;;4980745;28;20113;-59
2023/02/07 13:55:18;;;;;;;7.85;5.00;;;;;;;;;;4982826;28;20126;-58
2023/02/07 14:00:47;;;;;;;7.90;5.15;;;;;;;;;;4977636;28;20070;-59
2023/02/07 14:03:20;;;;;;;9.10;4.70;;;;;;;;;;4981845;28;20777;-59
2023/02/07 14:05:45;;;;;;;10.20;5.10;;;;;;;;;;4978452;28;20022;-59
2023/02/07 14:08:16;;;;;;;8.13;5.10;;;;;;;;;;4983763;28;20033;-58
2023/02/07 14:10:43;;;;;;;8.43;4.57;;;;;;;;;;4973068;28;20479;-60
2023/02/07 14:13:32;;;;;;;8.50;4.90;;;;;;;;;;4978676;28;20113;-59
2023/02/07 14:15:57;;;;;;;8.25;5.22;;;;;;;;;;4978352;28;20034;-58
2023/02/07 14:18:29;;;;;;;9.20;5.43;;;;;;;;;;4976880;28;20390;-58
2023/02/07 14:21:20;;;;;;;8.27;5.20;;;;;;;;;;4975656;28;20030;-60
2023/02/07 14:23:58;;;;;;;7.63;4.57;;;;;;;;;;4978076;28;20046;-58
2023/02/07 14:26:38;;;;;;;7.22;4.95;;;;;;;;;;4978581;28;20383;-58
2023/02/07 14:29:19;;;;;;;9.10;5.68;;;;;;;;;;4966884;28;20062;-59
2023/02/07 14:31:48;;;;;;;12.95;7.60;;;;;;;;;;4983231;28;20058;-59
2023/02/07 14:34:14;;;;;;;9.90;6.88;;;;;;;;;;4973683;28;20037;-59
2023/02/07 14:36:40;;;;;;;15.75;7.60;;;;;;;;;;4978245;28;20112;-61